createdAt,value
2022-11-16T00:02:21.570Z,8.30
2022-11-16T00:04:50.736Z,8.30
2022-11-16T00:07:19.656Z,8.30
2022-11-16T00:09:49.513Z,8.30
2022-11-16T00:12:18.429Z,8.20
2022-11-16T00:14:47.298Z,8.20
2022-11-16T00:17:16.597Z,8.20
2022-11-16T00:19:49.092Z,8.20
2022-11-16T00:22:18.057Z,8.20
2022-11-16T00:24:46.942Z,8.20
2022-11-16T00:27:16.013Z,8.20
2022-11-16T00:29:44.930Z,8.20
2022-11-16T00:32:14.244Z,8.20
2022-11-16T00:34:43.152Z,8.20
2022-11-16T00:37:13.541Z,8.20
2022-11-16T00:39:42.441Z,8.10
2022-11-16T00:42:11.668Z,8.10
2022-11-16T00:44:40.590Z,8.00
2022-11-16T00:47:09.730Z,8.00
2022-11-16T00:49:38.895Z,8.00
2022-11-16T00:52:07.873Z,8.00
2022-11-16T00:54:38.562Z,8.00
2022-11-16T00:57:07.479Z,8.00
2022-11-16T00:59:36.234Z,8.10
2022-11-16T01:02:05.256Z,8.00
2022-11-16T01:04:34.117Z,8.00
2022-11-16T01:07:04.593Z,8.00
2022-11-16T01:09:33.597Z,8.00
2022-11-16T01:12:08.973Z,8.10
2022-11-16T01:14:38.924Z,8.10
2022-11-16T01:17:08.750Z,8.10
2022-11-16T01:19:39.553Z,8.10
2022-11-16T01:22:08.750Z,8.10
2022-11-16T01:24:40.104Z,8.10
2022-11-16T01:27:10.454Z,8.10
2022-11-16T01:29:39.375Z,8.10
2022-11-16T01:32:08.879Z,8.10
2022-11-16T01:34:38.045Z,8.10
2022-11-16T01:37:07.064Z,8.10
2022-11-16T01:39:36.432Z,8.10
2022-11-16T01:42:06.168Z,8.10
2022-11-16T01:45:01.742Z,8.10
2022-11-16T01:47:38.989Z,8.10
2022-11-16T01:50:14.725Z,8.10
2022-11-16T01:52:49.122Z,8.20
2022-11-16T01:55:21.538Z,8.20
2022-11-16T01:57:52.526Z,8.20
2022-11-16T02:00:23.831Z,8.10
2022-11-16T02:02:52.911Z,8.20
2022-11-16T02:05:31.904Z,8.20
2022-11-16T02:08:44.289Z,8.20
2022-11-16T02:11:46.926Z,8.20
2022-11-16T02:14:28.620Z,8.20
2022-11-16T02:17:13.690Z,8.10
2022-11-16T02:20:32.010Z,8.20
2022-11-16T02:23:37.857Z,8.10
2022-11-16T02:26:30.169Z,8.10
2022-11-16T02:29:25.926Z,8.10
2022-11-16T02:32:06.229Z,8.10
2022-11-16T02:34:44.184Z,8.10
2022-11-16T02:37:19.531Z,8.10
2022-11-16T02:39:53.875Z,8.10
2022-11-16T02:42:32.398Z,8.00
2022-11-16T02:45:06.975Z,8.00
2022-11-16T02:47:39.013Z,8.00
2022-11-16T02:50:16.819Z,8.00
2022-11-16T02:52:46.500Z,8.00
2022-11-16T02:55:16.357Z,7.90
2022-11-16T02:57:53.665Z,7.90
2022-11-16T03:00:28.655Z,7.90
2022-11-16T03:03:12.851Z,7.90
2022-11-16T03:05:50.819Z,7.90
2022-11-16T03:08:28.349Z,8.00
2022-11-16T03:11:19.645Z,8.00
2022-11-16T03:13:53.296Z,8.00
2022-11-16T03:16:30.816Z,8.00
2022-11-16T03:19:04.188Z,8.00
2022-11-16T03:21:41.554Z,8.00
2022-11-16T03:24:11.703Z,8.00
2022-11-16T03:26:51.290Z,8.10
2022-11-16T03:29:30.995Z,8.10
2022-11-16T03:32:13.265Z,8.10
2022-11-16T03:34:52.865Z,8.10
2022-11-16T03:37:24.624Z,8.10
2022-11-16T03:39:56.272Z,8.20
2022-11-16T03:42:29.779Z,8.20
2022-11-16T03:44:59.831Z,8.20
2022-11-16T03:47:30.308Z,8.20
2022-11-16T03:49:59.668Z,8.20
2022-11-16T03:52:28.718Z,8.30
2022-11-16T03:54:57.419Z,8.30
2022-11-16T03:57:26.402Z,8.30
2022-11-16T03:59:55.270Z,8.30
2022-11-16T04:02:24.370Z,8.30
2022-11-16T04:05:12.074Z,8.40
2022-11-16T04:07:58.627Z,8.40
2022-11-16T04:10:45.428Z,8.40
2022-11-16T04:13:34.803Z,8.40
2022-11-16T04:16:20.859Z,8.50
2022-11-16T04:19:07.110Z,8.50
2022-11-16T04:21:59.652Z,8.50
2022-11-16T04:24:35.535Z,8.50
2022-11-16T04:27:27.726Z,8.50
2022-11-16T04:30:00.368Z,8.40
2022-11-16T04:32:46.824Z,8.50
2022-11-16T04:35:33.293Z,8.50
2022-11-16T04:38:04.519Z,8.50
2022-11-16T04:40:33.426Z,8.50
2022-11-16T04:43:05.144Z,8.50
2022-11-16T04:45:52.324Z,8.50
2022-11-16T04:48:22.537Z,8.50
2022-11-16T04:51:00.504Z,8.50
2022-11-16T04:53:31.243Z,8.50
2022-11-16T04:56:01.014Z,8.50
2022-11-16T04:58:29.929Z,8.50
2022-11-16T05:00:58.986Z,8.60
2022-11-16T05:03:28.685Z,8.60
2022-11-16T05:05:57.650Z,8.60
2022-11-16T05:08:28.344Z,8.60
2022-11-16T05:10:58.825Z,8.60
2022-11-16T05:13:30.584Z,8.60
2022-11-16T05:15:59.812Z,8.70
2022-11-16T05:18:29.556Z,8.60
2022-11-16T05:21:04.481Z,8.70
2022-11-16T05:23:51.032Z,8.60
2022-11-16T05:26:23.679Z,8.70
2022-11-16T05:28:55.851Z,8.70
2022-11-16T05:31:24.714Z,8.70
2022-11-16T05:33:54.167Z,8.70
2022-11-16T05:36:23.219Z,8.70
2022-11-16T05:38:56.075Z,8.70
2022-11-16T05:41:26.954Z,8.60
2022-11-16T05:43:58.784Z,8.70
2022-11-16T05:46:27.685Z,8.70
2022-11-16T05:48:57.283Z,8.60
2022-11-16T05:51:26.412Z,8.60
2022-11-16T05:53:55.433Z,8.60
2022-11-16T05:56:26.158Z,8.60
2022-11-16T05:58:55.087Z,8.50
2022-11-16T06:01:24.185Z,8.60
2022-11-16T06:03:53.350Z,8.50
2022-11-16T06:06:22.652Z,8.50
2022-11-16T06:08:53.309Z,8.40
2022-11-16T06:11:22.932Z,8.40
2022-11-16T06:13:54.230Z,8.40
2022-11-16T06:16:26.446Z,8.40
2022-11-16T06:18:55.503Z,8.50
2022-11-16T06:21:24.921Z,8.50
2022-11-16T06:23:54.103Z,8.50
2022-11-16T06:26:23.610Z,8.50
2022-11-16T06:28:55.704Z,8.50
2022-11-16T06:31:25.310Z,8.50
2022-11-16T06:33:54.388Z,8.50
2022-11-16T06:36:24.201Z,8.50
2022-11-16T06:38:53.387Z,8.50
2022-11-16T06:41:23.436Z,8.50
2022-11-16T06:43:53.996Z,8.50
2022-11-16T06:46:24.725Z,8.50
2022-11-16T06:48:54.035Z,8.50
2022-11-16T06:51:22.859Z,8.50
2022-11-16T06:53:52.098Z,8.50
2022-11-16T06:56:21.340Z,8.50
2022-11-16T06:58:53.409Z,8.50
2022-11-16T07:01:24.537Z,8.50
2022-11-16T07:03:54.120Z,8.50
2022-11-16T07:06:23.421Z,8.50
2022-11-16T07:08:52.698Z,8.50
2022-11-16T07:11:21.730Z,8.50
2022-11-16T07:13:54.661Z,8.60
2022-11-16T07:16:25.530Z,8.60
2022-11-16T07:18:56.691Z,8.60
2022-11-16T07:21:26.722Z,8.60
2022-11-16T07:23:56.446Z,8.70
2022-11-16T07:26:26.369Z,8.70
2022-11-16T07:28:58.063Z,8.70
2022-11-16T07:31:29.704Z,8.70
2022-11-16T07:33:59.176Z,8.70
2022-11-16T07:36:28.016Z,8.70
2022-11-16T07:38:58.613Z,8.70
2022-11-16T07:41:30.364Z,8.70
2022-11-16T07:44:01.287Z,8.70
2022-11-16T07:46:48.396Z,8.80
2022-11-16T07:49:20.946Z,8.70
2022-11-16T07:51:50.356Z,8.80
2022-11-16T07:54:19.459Z,8.80
2022-11-16T07:56:51.394Z,8.80
2022-11-16T07:59:21.021Z,8.80
2022-11-16T08:01:52.325Z,8.80
2022-11-16T08:04:21.246Z,8.80
2022-11-16T08:06:52.485Z,8.80
2022-11-16T08:09:21.742Z,8.80
2022-11-16T08:11:51.678Z,8.80
2022-11-16T08:14:20.604Z,8.80
2022-11-16T08:16:51.364Z,8.80
2022-11-16T08:19:21.011Z,8.80
2022-11-16T08:21:49.744Z,8.80
2022-11-16T08:24:22.125Z,8.80
2022-11-16T08:26:51.724Z,8.80
2022-11-16T08:29:21.029Z,8.90
2022-11-16T08:31:54.661Z,8.80
2022-11-16T08:34:24.481Z,8.90
2022-11-16T08:36:54.456Z,8.80
2022-11-16T08:39:25.683Z,8.80
2022-11-16T08:41:54.582Z,8.80
2022-11-16T08:44:25.656Z,8.80
2022-11-16T08:46:56.571Z,8.80
2022-11-16T08:49:25.641Z,8.80
2022-11-16T08:51:54.644Z,8.80
2022-11-16T08:54:26.779Z,8.80
2022-11-16T08:56:56.345Z,8.80
2022-11-16T08:59:25.351Z,8.80
2022-11-16T09:01:56.307Z,8.80
2022-11-16T09:04:25.550Z,8.80
2022-11-16T09:06:55.108Z,8.80
2022-11-16T09:09:24.516Z,8.80
2022-11-16T09:11:56.764Z,8.80
2022-11-16T09:14:25.846Z,8.80
2022-11-16T09:16:56.182Z,8.80
2022-11-16T09:19:25.218Z,8.80
2022-11-16T09:21:54.150Z,8.80
2022-11-16T09:24:23.552Z,8.90
2022-11-16T09:26:55.355Z,8.90
2022-11-16T09:29:24.201Z,8.90
2022-11-16T09:31:53.301Z,8.90
2022-11-16T09:34:24.377Z,8.90
2022-11-16T09:36:53.472Z,9.00
2022-11-16T09:39:31.395Z,8.90
2022-11-16T09:42:21.176Z,8.90
2022-11-16T09:45:06.893Z,8.90
2022-11-16T09:47:49.423Z,9.00
2022-11-16T09:50:38.522Z,9.00
2022-11-16T09:53:22.917Z,9.10
2022-11-16T09:55:56.051Z,9.10
2022-11-16T09:58:31.912Z,9.00
2022-11-16T10:01:17.396Z,9.10
2022-11-16T10:03:50.865Z,9.10
2022-11-16T10:06:31.203Z,9.10
2022-11-16T10:08:59.981Z,9.10
2022-11-16T10:12:06.203Z,9.20
2022-11-16T10:15:13.137Z,9.20
2022-11-16T10:18:08.884Z,9.10
2022-11-16T10:21:11.057Z,9.10
2022-11-16T10:24:02.286Z,9.10
2022-11-16T10:26:43.029Z,9.20
2022-11-16T10:29:33.802Z,9.10
2022-11-16T10:32:20.552Z,9.20
2022-11-16T10:34:55.233Z,9.20
2022-11-16T10:37:31.736Z,9.20
2022-11-16T10:40:25.116Z,9.20
2022-11-16T10:43:14.752Z,9.20
2022-11-16T10:45:58.226Z,9.30
2022-11-16T10:48:41.498Z,9.20
2022-11-16T10:51:12.647Z,9.20
2022-11-16T10:53:45.246Z,9.20
2022-11-16T10:56:26.709Z,9.20
2022-11-16T10:59:05.595Z,9.20
2022-11-16T11:01:42.398Z,9.20
2022-11-16T11:04:22.797Z,9.20
2022-11-16T11:06:55.261Z,9.20
2022-11-16T11:09:29.840Z,9.20
2022-11-16T11:12:32.496Z,9.20
2022-11-16T11:15:21.348Z,9.20
2022-11-16T11:18:17.674Z,9.20
2022-11-16T11:20:52.682Z,9.20
2022-11-16T11:23:26.680Z,9.20
2022-11-16T11:25:59.423Z,9.20
2022-11-16T11:28:33.596Z,9.20
2022-11-16T11:31:07.945Z,9.20
2022-11-16T11:33:54.795Z,9.10
2022-11-16T11:36:28.402Z,9.20
2022-11-16T11:39:04.332Z,9.10
2022-11-16T11:41:39.398Z,9.10
2022-11-16T11:44:20.117Z,9.20
2022-11-16T11:47:42.407Z,9.10
2022-11-16T11:49:53.828Z,9.10
2022-11-16T11:52:36.196Z,9.10
2022-11-16T11:55:10.143Z,9.10
2022-11-16T11:57:45.087Z,9.10
2022-11-16T12:00:19.937Z,9.10
2022-11-16T12:03:31.377Z,9.10
2022-11-16T12:06:14.146Z,9.10
2022-11-16T12:09:11.104Z,9.10
2022-11-16T12:12:01.211Z,9.10
2022-11-16T12:15:00.342Z,9.10
2022-11-16T12:17:45.165Z,9.10
2022-11-16T12:20:37.000Z,9.10
2022-11-16T12:23:45.785Z,9.10
2022-11-16T12:26:33.239Z,9.10
2022-11-16T12:29:26.138Z,9.10
2022-11-16T12:32:33.263Z,9.10
2022-11-16T12:35:42.595Z,9.10
2022-11-16T12:38:48.032Z,9.00
2022-11-16T12:42:10.311Z,9.00
2022-11-16T12:45:14.589Z,9.00
2022-11-16T12:48:07.644Z,9.00
2022-11-16T12:50:53.741Z,9.00
2022-11-16T12:54:01.497Z,9.10
2022-11-16T12:56:49.326Z,9.10
2022-11-16T12:59:53.237Z,9.10
2022-11-16T13:02:45.038Z,9.10
2022-11-16T13:05:22.350Z,9.10
2022-11-16T13:08:03.689Z,9.10
2022-11-16T13:10:39.935Z,9.10
2022-11-16T13:13:40.118Z,9.10
2022-11-16T13:16:11.712Z,9.10
2022-11-16T13:18:44.231Z,9.10
2022-11-16T13:21:26.726Z,9.10
2022-11-16T13:24:21.380Z,9.10
2022-11-16T13:27:04.146Z,9.10
2022-11-16T13:29:41.643Z,9.10
2022-11-16T13:32:24.087Z,9.20
2022-11-16T13:34:55.185Z,9.10
2022-11-16T13:37:49.203Z,9.20
2022-11-16T13:40:30.302Z,9.20
2022-11-16T13:43:22.760Z,9.20
2022-11-16T13:46:02.131Z,9.10
2022-11-16T13:48:38.635Z,9.10
2022-11-16T13:51:20.185Z,9.10
2022-11-16T13:56:53.104Z,9.10
2022-11-16T13:59:29.685Z,9.10
2022-11-16T14:02:02.257Z,9.10
2022-11-16T14:04:58.914Z,9.10
2022-11-16T14:07:40.745Z,9.10
2022-11-16T14:10:11.559Z,9.00
2022-11-16T14:13:00.538Z,9.00
2022-11-16T14:15:39.993Z,8.90
2022-11-16T14:18:37.540Z,8.90
2022-11-16T14:21:43.343Z,8.90
2022-11-16T14:24:30.525Z,8.90
2022-11-16T14:27:13.357Z,8.90
2022-11-16T14:30:03.088Z,8.80
2022-11-16T14:32:41.386Z,8.80
2022-11-16T14:35:30.803Z,8.80
2022-11-16T14:38:17.251Z,8.70
2022-11-16T14:40:54.870Z,8.70
2022-11-16T14:43:32.379Z,8.60
2022-11-16T14:46:12.068Z,8.50
2022-11-16T14:48:48.331Z,8.50
2022-11-16T14:51:24.944Z,8.50
2022-11-16T14:54:00.673Z,8.50
2022-11-16T14:56:31.032Z,8.50
2022-11-16T14:59:02.826Z,8.40
2022-11-16T15:01:40.884Z,8.40
2022-11-16T15:04:19.208Z,8.40
2022-11-16T15:06:54.985Z,8.30
2022-11-16T15:09:32.666Z,8.30
2022-11-16T15:12:23.307Z,8.20
2022-11-16T15:14:57.531Z,8.20
2022-11-16T15:17:32.968Z,8.20
2022-11-16T15:20:18.242Z,8.10
2022-11-16T15:22:52.964Z,8.10
2022-11-16T15:25:33.041Z,8.10
2022-11-16T15:28:17.463Z,8.00
2022-11-16T15:30:51.156Z,7.90
2022-11-16T15:33:29.367Z,7.90
2022-11-16T15:35:59.234Z,7.90
2022-11-16T15:38:36.465Z,7.80
2022-11-16T15:41:07.583Z,7.80
2022-11-16T15:43:55.444Z,7.70
2022-11-16T15:46:35.486Z,7.70
2022-11-16T15:49:15.011Z,7.60
2022-11-16T15:51:47.355Z,7.50
2022-11-16T15:54:28.126Z,7.40
2022-11-16T15:57:08.022Z,7.40
2022-11-16T15:59:41.170Z,7.30
2022-11-16T16:02:21.648Z,7.20
2022-11-16T16:04:52.349Z,7.10
2022-11-16T16:07:40.682Z,7.00
2022-11-16T16:10:25.969Z,7.00
2022-11-16T16:12:57.856Z,6.90
2022-11-16T16:15:31.484Z,6.90
2022-11-16T16:18:13.040Z,6.90
2022-11-16T16:20:50.640Z,6.90
2022-11-16T16:23:31.339Z,6.80
2022-11-16T16:26:05.476Z,6.70
2022-11-16T16:28:34.528Z,6.60
2022-11-16T16:31:03.694Z,6.60
2022-11-16T16:33:33.259Z,6.50
2022-11-16T16:36:04.288Z,6.60
2022-11-16T16:38:36.391Z,6.60
2022-11-16T16:41:08.306Z,6.60
2022-11-16T16:43:38.129Z,6.60
2022-11-16T16:46:08.127Z,6.50
2022-11-16T16:48:41.795Z,6.50
2022-11-16T16:51:15.995Z,6.50
2022-11-16T16:53:48.190Z,6.40
2022-11-16T16:56:20.531Z,6.40
2022-11-16T16:58:49.433Z,6.30
2022-11-16T17:01:18.521Z,6.40
2022-11-16T17:03:47.445Z,6.30
2022-11-16T17:06:19.101Z,6.30
2022-11-16T17:08:48.282Z,6.30
2022-11-16T17:11:18.092Z,6.30
2022-11-16T17:13:47.100Z,6.30
2022-11-16T17:16:16.610Z,6.30
2022-11-16T17:18:46.436Z,6.30
2022-11-16T17:21:16.839Z,6.30
2022-11-16T17:23:45.807Z,6.30
2022-11-16T17:26:15.278Z,6.20
2022-11-16T17:28:44.265Z,6.20
2022-11-16T17:31:15.781Z,6.20
2022-11-16T17:33:48.029Z,6.20
2022-11-16T17:36:18.701Z,6.20
2022-11-16T17:38:48.276Z,6.30
2022-11-16T17:41:21.710Z,6.20
2022-11-16T17:43:56.916Z,6.20
2022-11-16T17:46:29.268Z,6.10
2022-11-16T17:48:59.345Z,5.90
2022-11-16T17:51:32.657Z,6.00
2022-11-16T17:54:01.720Z,5.90
2022-11-16T17:56:33.792Z,5.80
2022-11-16T17:59:02.926Z,5.80
2022-11-16T18:01:37.592Z,5.90
2022-11-16T18:04:07.148Z,5.80
2022-11-16T18:06:38.068Z,5.80
2022-11-16T18:09:07.492Z,5.80
2022-11-16T18:11:36.452Z,5.70
2022-11-16T18:14:06.802Z,5.70
2022-11-16T18:16:36.075Z,5.60
2022-11-16T18:19:07.379Z,5.60
2022-11-16T18:21:43.443Z,5.60
2022-11-16T18:24:14.016Z,5.60
2022-11-16T18:26:43.471Z,5.60
2022-11-16T18:29:18.615Z,5.60
2022-11-16T18:31:47.796Z,5.70
2022-11-16T18:34:17.305Z,5.70
2022-11-16T18:36:49.214Z,5.70
2022-11-16T18:39:18.177Z,5.70
2022-11-16T18:41:54.741Z,5.60
2022-11-16T18:44:24.255Z,5.60
2022-11-16T18:46:53.458Z,5.50
2022-11-16T18:49:23.232Z,5.70
2022-11-16T18:51:56.363Z,5.60
2022-11-16T18:54:25.580Z,5.50
2022-11-16T18:56:58.994Z,5.50
2022-11-16T18:59:27.858Z,5.50
2022-11-16T19:01:58.984Z,5.50
2022-11-16T19:04:28.962Z,5.40
2022-11-16T19:06:59.308Z,5.40
2022-11-16T19:09:28.742Z,5.40
2022-11-16T19:11:57.813Z,5.30
2022-11-16T19:14:27.298Z,5.30
2022-11-16T19:16:57.453Z,5.40
2022-11-16T19:19:27.932Z,5.40
2022-11-16T19:21:58.734Z,5.40
2022-11-16T19:24:32.245Z,5.40
2022-11-16T19:27:01.448Z,5.40
2022-11-16T19:29:30.428Z,5.30
2022-11-16T19:31:59.325Z,5.20
2022-11-16T19:34:33.173Z,5.20
2022-11-16T19:37:04.052Z,5.10
2022-11-16T19:39:33.085Z,5.10
2022-11-16T19:42:02.280Z,5.10
2022-11-16T19:44:31.757Z,5.10
2022-11-16T19:47:01.004Z,5.20
2022-11-16T19:49:30.044Z,5.00
2022-11-16T19:51:59.746Z,5.10
2022-11-16T19:54:30.489Z,5.20
2022-11-16T19:57:03.016Z,5.10
2022-11-16T19:59:32.129Z,5.10
2022-11-16T20:02:01.113Z,5.10
2022-11-16T20:04:33.723Z,5.10
2022-11-16T20:07:03.499Z,5.10
2022-11-16T20:09:34.151Z,5.00
2022-11-16T20:12:03.073Z,4.90
2022-11-16T20:14:32.472Z,4.90
2022-11-16T20:17:01.306Z,4.90
2022-11-16T20:19:31.920Z,4.80
2022-11-16T20:22:01.016Z,4.90
2022-11-16T20:24:30.261Z,4.90
2022-11-16T20:27:00.967Z,4.90
2022-11-16T20:29:29.946Z,5.00
2022-11-16T20:31:59.703Z,5.00
2022-11-16T20:34:29.119Z,5.00
2022-11-16T20:36:58.247Z,4.90
2022-11-16T20:39:27.494Z,4.90
2022-11-16T20:41:56.265Z,4.80
2022-11-16T20:44:31.120Z,4.90
2022-11-16T20:47:00.396Z,4.90
2022-11-16T20:49:34.272Z,4.90
2022-11-16T20:52:03.344Z,5.00
2022-11-16T20:54:32.423Z,5.10
2022-11-16T20:57:01.469Z,5.20
2022-11-16T20:59:33.354Z,5.30
2022-11-16T21:02:02.377Z,5.40
2022-11-16T21:04:31.845Z,5.50
2022-11-16T21:07:01.011Z,5.50
2022-11-16T21:09:50.319Z,5.50
2022-11-16T21:12:42.765Z,5.50
2022-11-16T21:15:13.551Z,5.60
2022-11-16T21:17:42.468Z,5.60
2022-11-16T21:20:27.035Z,5.60
2022-11-16T21:22:56.661Z,5.60
2022-11-16T21:25:25.845Z,5.60
2022-11-16T21:27:54.631Z,5.60
2022-11-16T21:30:24.861Z,5.60
2022-11-16T21:32:54.541Z,5.60
2022-11-16T21:35:26.945Z,5.60
2022-11-16T21:37:55.679Z,5.60
2022-11-16T21:40:24.971Z,5.50
2022-11-16T21:42:54.264Z,5.50
2022-11-16T21:45:24.643Z,5.40
2022-11-16T21:47:53.873Z,5.40
2022-11-16T21:50:31.737Z,5.30
2022-11-16T21:53:02.963Z,5.30
2022-11-16T21:55:33.631Z,5.20
2022-11-16T21:58:04.719Z,5.10
2022-11-16T22:00:36.888Z,5.00
2022-11-16T22:03:06.389Z,4.90
2022-11-16T22:05:52.721Z,4.90
2022-11-16T22:08:23.603Z,4.80
2022-11-16T22:10:53.183Z,4.80
2022-11-16T22:13:23.189Z,4.80
2022-11-16T22:15:57.570Z,4.70
2022-11-16T22:18:27.131Z,4.70
2022-11-16T22:20:58.320Z,4.60
2022-11-16T22:23:27.915Z,4.50
2022-11-16T22:26:02.037Z,4.40
2022-11-16T22:28:31.479Z,4.40
2022-11-16T22:31:07.276Z,4.20
2022-11-16T22:33:39.730Z,4.20
2022-11-16T22:36:11.299Z,4.00
2022-11-16T22:38:41.004Z,4.00
2022-11-16T22:41:10.531Z,4.00
2022-11-16T22:43:40.530Z,3.90
2022-11-16T22:46:12.639Z,3.80
2022-11-16T22:48:43.479Z,3.70
2022-11-16T22:51:21.045Z,3.80
2022-11-16T22:53:56.145Z,3.90
2022-11-16T22:56:28.340Z,3.80
2022-11-16T22:58:57.979Z,3.80
2022-11-16T23:01:28.437Z,3.80
2022-11-16T23:03:58.026Z,3.70
2022-11-16T23:06:27.824Z,3.70
2022-11-16T23:08:56.769Z,3.70
2022-11-16T23:11:46.423Z,3.60
2022-11-16T23:14:35.588Z,3.60
2022-11-16T23:17:07.269Z,3.50
2022-11-16T23:19:54.071Z,3.50
2022-11-16T23:22:41.117Z,3.40
2022-11-16T23:25:30.816Z,3.40
2022-11-16T23:28:07.376Z,3.20
2022-11-16T23:30:40.216Z,3.20
2022-11-16T23:33:13.447Z,3.20
2022-11-16T23:35:42.356Z,3.10
2022-11-16T23:38:11.794Z,3.00
2022-11-16T23:40:43.145Z,3.00
2022-11-16T23:43:34.379Z,2.90
2022-11-16T23:46:04.683Z,2.80
2022-11-16T23:48:35.068Z,2.80
2022-11-16T23:51:04.152Z,2.80
2022-11-16T23:53:33.776Z,2.70
2022-11-16T23:56:06.199Z,2.60
2022-11-16T23:58:35.429Z,2.60
